sensor_id;sensor_type;location;lat;lon;timestamp;temperature;humidity
78455;SHT31;67751;51.986;5.696;2023-04-07T00:01:57;11.2;76.6
78455;SHT31;67751;51.986;5.696;2023-04-07T00:04:26;11.2;76.6
78455;SHT31;67751;51.986;5.696;2023-04-07T00:06:56;11.2;76.7
78455;SHT31;67751;51.986;5.696;2023-04-07T00:09:26;11.2;76.7
78455;SHT31;67751;51.986;5.696;2023-04-07T00:11:56;11.2;76.7
78455;SHT31;67751;51.986;5.696;2023-04-07T00:14:28;11.2;76.5
78455;SHT31;67751;51.986;5.696;2023-04-07T00:17:00;11.2;76.6
78455;SHT31;67751;51.986;5.696;2023-04-07T00:19:29;11.2;76.6
78455;SHT31;67751;51.986;5.696;2023-04-07T00:22:02;11.2;76.8
78455;SHT31;67751;51.986;5.696;2023-04-07T00:24:31;11.2;76.6
78455;SHT31;67751;51.986;5.696;2023-04-07T00:27:01;11.2;76.5
78455;SHT31;67751;51.986;5.696;2023-04-07T00:29:31;11.2;76.4
78455;SHT31;67751;51.986;5.696;2023-04-07T00:32:01;11.3;76.2
78455;SHT31;67751;51.986;5.696;2023-04-07T00:34:30;11.3;76.3
78455;SHT31;67751;51.986;5.696;2023-04-07T00:37:00;11.3;76.2
78455;SHT31;67751;51.986;5.696;2023-04-07T00:39:33;11.3;76.2
78455;SHT31;67751;51.986;5.696;2023-04-07T00:42:04;11.3;76.0
78455;SHT31;67751;51.986;5.696;2023-04-07T00:44:34;11.2;76.0
78455;SHT31;67751;51.986;5.696;2023-04-07T00:47:04;11.2;75.9
78455;SHT31;67751;51.986;5.696;2023-04-07T00:49:33;11.2;75.9
78455;SHT31;67751;51.986;5.696;2023-04-07T00:52:05;11.2;75.8
78455;SHT31;67751;51.986;5.696;2023-04-07T00:54:38;11.2;75.6
78455;SHT31;67751;51.986;5.696;2023-04-07T00:57:10;11.2;75.6
78455;SHT31;67751;51.986;5.696;2023-04-07T00:59:40;11.2;75.6
78455;SHT31;67751;51.986;5.696;2023-04-07T01:02:15;11.2;75.7
78455;SHT31;67751;51.986;5.696;2023-04-07T01:04:52;11.1;75.7
78455;SHT31;67751;51.986;5.696;2023-04-07T01:07:27;11.1;75.8
78455;SHT31;67751;51.986;5.696;2023-04-07T01:10:02;11.1;75.9
78455;SHT31;67751;51.986;5.696;2023-04-07T01:12:40;11.1;75.9
78455;SHT31;67751;51.986;5.696;2023-04-07T01:15:15;11.1;75.8
78455;SHT31;67751;51.986;5.696;2023-04-07T01:17:58;11.1;75.5
78455;SHT31;67751;51.986;5.696;2023-04-07T01:20:32;11.1;75.6
78455;SHT31;67751;51.986;5.696;2023-04-07T01:23:06;11.0;75.4
78455;SHT31;67751;51.986;5.696;2023-04-07T01:25:52;11.0;76.0
78455;SHT31;67751;51.986;5.696;2023-04-07T01:28:48;10.9;76.0
78455;SHT31;67751;51.986;5.696;2023-04-07T01:31:19;10.9;76.2
78455;SHT31;67751;51.986;5.696;2023-04-07T01:33:54;10.9;76.1
78455;SHT31;67751;51.986;5.696;2023-04-07T01:36:26;10.9;75.8
78455;SHT31;67751;51.986;5.696;2023-04-07T01:38:58;10.9;76.0
78455;SHT31;67751;51.986;5.696;2023-04-07T01:41:30;10.8;76.2
78455;SHT31;67751;51.986;5.696;2023-04-07T01:44:00;10.8;76.3
78455;SHT31;67751;51.986;5.696;2023-04-07T01:46:30;10.8;76.2
78455;SHT31;67751;51.986;5.696;2023-04-07T01:49:01;10.8;76.2
78455;SHT31;67751;51.986;5.696;2023-04-07T01:51:32;10.8;75.8
78455;SHT31;67751;51.986;5.696;2023-04-07T01:54:03;10.8;76.1
78455;SHT31;67751;51.986;5.696;2023-04-07T01:56:33;10.8;75.7
78455;SHT31;67751;51.986;5.696;2023-04-07T01:59:02;10.8;75.8
78455;SHT31;67751;51.986;5.696;2023-04-07T02:01:33;10.8;75.9
78455;SHT31;67751;51.986;5.696;2023-04-07T02:04:09;10.8;76.0
78455;SHT31;67751;51.986;5.696;2023-04-07T02:06:43;10.8;75.9
78455;SHT31;67751;51.986;5.696;2023-04-07T02:09:19;10.9;75.9
78455;SHT31;67751;51.986;5.696;2023-04-07T02:11:54;10.9;75.8
78455;SHT31;67751;51.986;5.696;2023-04-07T02:14:24;10.9;75.6
78455;SHT31;67751;51.986;5.696;2023-04-07T02:16:55;10.9;75.7
78455;SHT31;67751;51.986;5.696;2023-04-07T02:19:26;10.9;75.6
78455;SHT31;67751;51.986;5.696;2023-04-07T02:22:00;10.9;75.6
78455;SHT31;67751;51.986;5.696;2023-04-07T02:24:31;10.9;75.5
78455;SHT31;67751;51.986;5.696;2023-04-07T02:27:02;10.9;75.4
78455;SHT31;67751;51.986;5.696;2023-04-07T02:29:32;10.9;75.3
78455;SHT31;67751;51.986;5.696;2023-04-07T02:32:02;10.9;75.4
78455;SHT31;67751;51.986;5.696;2023-04-07T02:34:32;10.9;75.3
78455;SHT31;67751;51.986;5.696;2023-04-07T02:37:02;10.9;75.3
78455;SHT31;67751;51.986;5.696;2023-04-07T02:39:32;10.8;75.8
78455;SHT31;67751;51.986;5.696;2023-04-07T02:42:02;10.8;75.9
78455;SHT31;67751;51.986;5.696;2023-04-07T02:44:32;10.8;76.0
78455;SHT31;67751;51.986;5.696;2023-04-07T02:47:01;10.8;75.9
78455;SHT31;67751;51.986;5.696;2023-04-07T02:49:31;10.8;75.6
78455;SHT31;67751;51.986;5.696;2023-04-07T02:52:00;10.8;76.0
78455;SHT31;67751;51.986;5.696;2023-04-07T02:54:30;10.8;75.7
78455;SHT31;67751;51.986;5.696;2023-04-07T02:56:59;10.9;75.8
78455;SHT31;67751;51.986;5.696;2023-04-07T02:59:29;10.9;75.9
78455;SHT31;67751;51.986;5.696;2023-04-07T03:01:58;10.9;75.8
78455;SHT31;67751;51.986;5.696;2023-04-07T03:04:28;10.9;75.8
78455;SHT31;67751;51.986;5.696;2023-04-07T03:06:58;10.9;75.8
78455;SHT31;67751;51.986;5.696;2023-04-07T03:09:28;10.9;75.8
78455;SHT31;67751;51.986;5.696;2023-04-07T03:11:58;10.9;75.8
78455;SHT31;67751;51.986;5.696;2023-04-07T03:14:28;10.9;75.7
78455;SHT31;67751;51.986;5.696;2023-04-07T03:16:58;10.9;75.7
78455;SHT31;67751;51.986;5.696;2023-04-07T03:19:27;11.0;75.4
78455;SHT31;67751;51.986;5.696;2023-04-07T03:21:57;11.0;75.4
78455;SHT31;67751;51.986;5.696;2023-04-07T03:24:29;11.0;75.5
78455;SHT31;67751;51.986;5.696;2023-04-07T03:26:59;11.0;75.6
78455;SHT31;67751;51.986;5.696;2023-04-07T03:29:28;11.0;75.5
78455;SHT31;67751;51.986;5.696;2023-04-07T03:31:58;11.0;75.5
78455;SHT31;67751;51.986;5.696;2023-04-07T03:34:27;11.0;75.3
78455;SHT31;67751;51.986;5.696;2023-04-07T03:36:57;11.0;75.4
78455;SHT31;67751;51.986;5.696;2023-04-07T03:39:26;11.0;75.6
78455;SHT31;67751;51.986;5.696;2023-04-07T03:41:59;11.0;75.6
78455;SHT31;67751;51.986;5.696;2023-04-07T03:44:29;11.0;75.7
78455;SHT31;67751;51.986;5.696;2023-04-07T03:46:59;11.0;75.6
78455;SHT31;67751;51.986;5.696;2023-04-07T03:49:29;11.0;75.6
78455;SHT31;67751;51.986;5.696;2023-04-07T03:51:59;11.0;75.6
78455;SHT31;67751;51.986;5.696;2023-04-07T03:54:29;11.0;75.5
78455;SHT31;67751;51.986;5.696;2023-04-07T03:57:01;11.0;75.4
78455;SHT31;67751;51.986;5.696;2023-04-07T03:59:31;11.0;75.4
78455;SHT31;67751;51.986;5.696;2023-04-07T04:02:01;11.0;75.4
78455;SHT31;67751;51.986;5.696;2023-04-07T04:04:31;11.0;75.4
78455;SHT31;67751;51.986;5.696;2023-04-07T04:07:00;11.0;75.3
78455;SHT31;67751;51.986;5.696;2023-04-07T04:09:30;11.0;75.2
78455;SHT31;67751;51.986;5.696;2023-04-07T04:11:59;11.0;75.2
78455;SHT31;67751;51.986;5.696;2023-04-07T04:14:29;11.0;75.0
78455;SHT31;67751;51.986;5.696;2023-04-07T04:16:59;11.0;75.0
78455;SHT31;67751;51.986;5.696;2023-04-07T04:19:28;11.0;75.2
78455;SHT31;67751;51.986;5.696;2023-04-07T04:21:58;11.0;75.2
78455;SHT31;67751;51.986;5.696;2023-04-07T04:24:28;11.0;75.3
78455;SHT31;67751;51.986;5.696;2023-04-07T04:26:57;11.0;75.0
78455;SHT31;67751;51.986;5.696;2023-04-07T04:29:28;11.0;75.2
78455;SHT31;67751;51.986;5.696;2023-04-07T04:31:59;11.0;75.1
78455;SHT31;67751;51.986;5.696;2023-04-07T04:34:29;11.0;75.1
78455;SHT31;67751;51.986;5.696;2023-04-07T04:36:58;11.0;75.2
78455;SHT31;67751;51.986;5.696;2023-04-07T04:39:28;11.0;75.3
78455;SHT31;67751;51.986;5.696;2023-04-07T04:41:57;11.0;75.4
78455;SHT31;67751;51.986;5.696;2023-04-07T04:44:27;11.0;75.1
78455;SHT31;67751;51.986;5.696;2023-04-07T04:46:57;11.0;75.3
78455;SHT31;67751;51.986;5.696;2023-04-07T04:49:27;11.0;75.4
78455;SHT31;67751;51.986;5.696;2023-04-07T04:51:56;11.0;75.4
78455;SHT31;67751;51.986;5.696;2023-04-07T04:54:26;11.0;75.4
78455;SHT31;67751;51.986;5.696;2023-04-07T04:56:56;11.0;75.4
78455;SHT31;67751;51.986;5.696;2023-04-07T04:59:25;11.0;75.1
78455;SHT31;67751;51.986;5.696;2023-04-07T05:01:57;11.0;75.2
78455;SHT31;67751;51.986;5.696;2023-04-07T05:04:26;11.0;75.2
78455;SHT31;67751;51.986;5.696;2023-04-07T05:06:56;11.0;75.2
78455;SHT31;67751;51.986;5.696;2023-04-07T05:09:26;11.0;75.3
78455;SHT31;67751;51.986;5.696;2023-04-07T05:11:55;11.0;75.1
78455;SHT31;67751;51.986;5.696;2023-04-07T05:14:25;11.0;75.2
78455;SHT31;67751;51.986;5.696;2023-04-07T05:16:55;11.0;75.2
78455;SHT31;67751;51.986;5.696;2023-04-07T05:19:24;11.0;75.0
78455;SHT31;67751;51.986;5.696;2023-04-07T05:21:56;11.0;75.2
78455;SHT31;67751;51.986;5.696;2023-04-07T05:24:28;11.0;75.2
78455;SHT31;67751;51.986;5.696;2023-04-07T05:26:58;11.0;75.1
78455;SHT31;67751;51.986;5.696;2023-04-07T05:29:28;11.0;75.1
78455;SHT31;67751;51.986;5.696;2023-04-07T05:31:58;11.0;75.2
78455;SHT31;67751;51.986;5.696;2023-04-07T05:34:28;11.0;75.2
78455;SHT31;67751;51.986;5.696;2023-04-07T05:36:57;11.0;75.1
78455;SHT31;67751;51.986;5.696;2023-04-07T05:39:27;11.0;74.8
78455;SHT31;67751;51.986;5.696;2023-04-07T05:41:57;11.0;74.8
78455;SHT31;67751;51.986;5.696;2023-04-07T05:44:28;11.0;75.2
78455;SHT31;67751;51.986;5.696;2023-04-07T05:46:59;11.0;75.3
78455;SHT31;67751;51.986;5.696;2023-04-07T05:49:32;11.0;75.3
78455;SHT31;67751;51.986;5.696;2023-04-07T05:52:02;11.0;75.2
78455;SHT31;67751;51.986;5.696;2023-04-07T05:54:32;11.0;75.3
78455;SHT31;67751;51.986;5.696;2023-04-07T05:57:02;11.0;75.3
78455;SHT31;67751;51.986;5.696;2023-04-07T05:59:33;11.0;75.0
78455;SHT31;67751;51.986;5.696;2023-04-07T06:02:04;11.0;74.7
78455;SHT31;67751;51.986;5.696;2023-04-07T06:04:33;11.0;75.0
78455;SHT31;67751;51.986;5.696;2023-04-07T06:07:03;11.0;75.3
78455;SHT31;67751;51.986;5.696;2023-04-07T06:09:33;11.0;75.3
78455;SHT31;67751;51.986;5.696;2023-04-07T06:12:03;11.0;75.2
78455;SHT31;67751;51.986;5.696;2023-04-07T06:14:33;11.0;75.4
78455;SHT31;67751;51.986;5.696;2023-04-07T06:17:03;11.0;75.4
78455;SHT31;67751;51.986;5.696;2023-04-07T06:19:33;11.0;75.3
78455;SHT31;67751;51.986;5.696;2023-04-07T06:22:02;10.9;75.3
78455;SHT31;67751;51.986;5.696;2023-04-07T06:24:34;10.9;75.6
78455;SHT31;67751;51.986;5.696;2023-04-07T06:27:04;10.9;75.8
78455;SHT31;67751;51.986;5.696;2023-04-07T06:29:35;10.9;75.9
78455;SHT31;67751;51.986;5.696;2023-04-07T06:32:05;10.9;76.2
78455;SHT31;67751;51.986;5.696;2023-04-07T06:34:34;10.8;76.4
78455;SHT31;67751;51.986;5.696;2023-04-07T06:37:04;10.8;76.6
78455;SHT31;67751;51.986;5.696;2023-04-07T06:39:35;10.9;76.5
78455;SHT31;67751;51.986;5.696;2023-04-07T06:42:04;10.9;76.2
78455;SHT31;67751;51.986;5.696;2023-04-07T06:44:34;10.9;76.3
78455;SHT31;67751;51.986;5.696;2023-04-07T06:47:03;10.9;75.8
78455;SHT31;67751;51.986;5.696;2023-04-07T06:49:33;10.9;76.2
78455;SHT31;67751;51.986;5.696;2023-04-07T06:52:04;10.9;76.3
78455;SHT31;67751;51.986;5.696;2023-04-07T06:54:33;10.9;76.5
78455;SHT31;67751;51.986;5.696;2023-04-07T06:57:03;10.9;76.2
78455;SHT31;67751;51.986;5.696;2023-04-07T06:59:38;10.9;76.5
78455;SHT31;67751;51.986;5.696;2023-04-07T07:02:07;10.9;76.6
78455;SHT31;67751;51.986;5.696;2023-04-07T07:04:37;10.9;76.3
78455;SHT31;67751;51.986;5.696;2023-04-07T07:07:06;10.9;75.7
78455;SHT31;67751;51.986;5.696;2023-04-07T07:09:36;11.0;76.0
78455;SHT31;67751;51.986;5.696;2023-04-07T07:12:06;11.0;75.5
78455;SHT31;67751;51.986;5.696;2023-04-07T07:14:36;11.0;76.0
78455;SHT31;67751;51.986;5.696;2023-04-07T07:17:07;11.0;76.2
78455;SHT31;67751;51.986;5.696;2023-04-07T07:19:37;11.0;76.2
78455;SHT31;67751;51.986;5.696;2023-04-07T07:22:06;11.0;75.7
78455;SHT31;67751;51.986;5.696;2023-04-07T07:24:36;11.0;75.3
78455;SHT31;67751;51.986;5.696;2023-04-07T07:27:05;11.0;75.7
78455;SHT31;67751;51.986;5.696;2023-04-07T07:29:35;11.0;76.1
78455;SHT31;67751;51.986;5.696;2023-04-07T07:32:04;11.0;76.1
78455;SHT31;67751;51.986;5.696;2023-04-07T07:34:34;11.0;76.7
78455;SHT31;67751;51.986;5.696;2023-04-07T07:37:04;11.0;76.5
78455;SHT31;67751;51.986;5.696;2023-04-07T07:39:34;11.0;76.3
78455;SHT31;67751;51.986;5.696;2023-04-07T07:42:03;11.0;76.0
78455;SHT31;67751;51.986;5.696;2023-04-07T07:44:33;11.0;76.6
78455;SHT31;67751;51.986;5.696;2023-04-07T07:47:03;11.0;76.2
78455;SHT31;67751;51.986;5.696;2023-04-07T07:49:32;11.0;76.0
78455;SHT31;67751;51.986;5.696;2023-04-07T07:52:02;11.0;76.6
78455;SHT31;67751;51.986;5.696;2023-04-07T07:54:32;11.1;76.8
78455;SHT31;67751;51.986;5.696;2023-04-07T07:57:02;11.1;74.9
78455;SHT31;67751;51.986;5.696;2023-04-07T07:59:32;11.1;75.8
78455;SHT31;67751;51.986;5.696;2023-04-07T08:02:02;11.1;76.4
78455;SHT31;67751;51.986;5.696;2023-04-07T08:04:32;11.1;76.6
78455;SHT31;67751;51.986;5.696;2023-04-07T08:07:02;11.1;76.1
78455;SHT31;67751;51.986;5.696;2023-04-07T08:09:34;11.1;76.0
78455;SHT31;67751;51.986;5.696;2023-04-07T08:12:06;11.1;76.4
78455;SHT31;67751;51.986;5.696;2023-04-07T08:14:35;11.1;75.1
78455;SHT31;67751;51.986;5.696;2023-04-07T08:17:05;11.1;75.8
78455;SHT31;67751;51.986;5.696;2023-04-07T08:19:34;11.2;75.2
78455;SHT31;67751;51.986;5.696;2023-04-07T08:22:04;11.2;74.9
78455;SHT31;67751;51.986;5.696;2023-04-07T08:24:34;11.2;74.8
78455;SHT31;67751;51.986;5.696;2023-04-07T08:27:03;11.2;74.8
78455;SHT31;67751;51.986;5.696;2023-04-07T08:29:33;11.2;74.9
78455;SHT31;67751;51.986;5.696;2023-04-07T08:32:03;11.2;76.2
78455;SHT31;67751;51.986;5.696;2023-04-07T08:34:32;11.2;75.2
78455;SHT31;67751;51.986;5.696;2023-04-07T08:37:02;11.2;76.0
78455;SHT31;67751;51.986;5.696;2023-04-07T08:39:31;11.2;75.4
78455;SHT31;67751;51.986;5.696;2023-04-07T08:42:02;11.3;75.4
78455;SHT31;67751;51.986;5.696;2023-04-07T08:44:32;11.3;74.6
78455;SHT31;67751;51.986;5.696;2023-04-07T08:47:04;11.3;73.7
78455;SHT31;67751;51.986;5.696;2023-04-07T08:49:40;11.2;74.1
78455;SHT31;67751;51.986;5.696;2023-04-07T08:52:14;11.2;74.0
78455;SHT31;67751;51.986;5.696;2023-04-07T08:54:44;11.2;74.1
78455;SHT31;67751;51.986;5.696;2023-04-07T08:57:16;11.2;73.7
78455;SHT31;67751;51.986;5.696;2023-04-07T08:59:47;11.2;75.3
78455;SHT31;67751;51.986;5.696;2023-04-07T09:02:19;11.2;74.7
78455;SHT31;67751;51.986;5.696;2023-04-07T09:04:49;11.2;74.8
78455;SHT31;67751;51.986;5.696;2023-04-07T09:07:19;11.2;75.2
78455;SHT31;67751;51.986;5.696;2023-04-07T09:09:48;11.3;75.6
78455;SHT31;67751;51.986;5.696;2023-04-07T09:12:18;11.3;75.8
78455;SHT31;67751;51.986;5.696;2023-04-07T09:14:48;11.3;74.6
78455;SHT31;67751;51.986;5.696;2023-04-07T09:17:18;11.4;74.4
78455;SHT31;67751;51.986;5.696;2023-04-07T09:19:48;11.4;73.0
78455;SHT31;67751;51.986;5.696;2023-04-07T09:22:38;11.4;74.9
78455;SHT31;67751;51.986;5.696;2023-04-07T09:25:16;11.5;75.2
78455;SHT31;67751;51.986;5.696;2023-04-07T09:27:59;11.5;72.9
78455;SHT31;67751;51.986;5.696;2023-04-07T09:30:31;11.5;72.3
78455;SHT31;67751;51.986;5.696;2023-04-07T09:33:01;11.5;73.1
78455;SHT31;67751;51.986;5.696;2023-04-07T09:35:31;11.5;72.2
78455;SHT31;67751;51.986;5.696;2023-04-07T09:38:03;11.5;73.1
78455;SHT31;67751;51.986;5.696;2023-04-07T09:40:34;11.5;72.3
78455;SHT31;67751;51.986;5.696;2023-04-07T09:43:05;11.5;73.9
78455;SHT31;67751;51.986;5.696;2023-04-07T09:45:35;11.5;73.2
78455;SHT31;67751;51.986;5.696;2023-04-07T09:48:06;11.5;72.5
78455;SHT31;67751;51.986;5.696;2023-04-07T09:50:39;11.5;71.2
78455;SHT31;67751;51.986;5.696;2023-04-07T09:53:12;11.5;70.4
78455;SHT31;67751;51.986;5.696;2023-04-07T09:55:42;11.5;71.0
78455;SHT31;67751;51.986;5.696;2023-04-07T09:58:13;11.5;72.1
78455;SHT31;67751;51.986;5.696;2023-04-07T10:00:44;11.5;72.8
78455;SHT31;67751;51.986;5.696;2023-04-07T10:03:14;11.5;72.6
78455;SHT31;67751;51.986;5.696;2023-04-07T10:05:45;11.5;72.9
78455;SHT31;67751;51.986;5.696;2023-04-07T10:08:16;11.5;73.4
78455;SHT31;67751;51.986;5.696;2023-04-07T10:10:47;11.6;73.8
78455;SHT31;67751;51.986;5.696;2023-04-07T10:13:18;11.6;72.5
78455;SHT31;67751;51.986;5.696;2023-04-07T10:15:51;11.6;72.7
78455;SHT31;67751;51.986;5.696;2023-04-07T10:18:22;11.6;73.4
78455;SHT31;67751;51.986;5.696;2023-04-07T10:20:55;11.7;74.3
78455;SHT31;67751;51.986;5.696;2023-04-07T10:23:35;11.7;72.7
78455;SHT31;67751;51.986;5.696;2023-04-07T10:26:07;11.7;72.8
78455;SHT31;67751;51.986;5.696;2023-04-07T10:28:39;11.7;72.1
78455;SHT31;67751;51.986;5.696;2023-04-07T10:31:11;11.7;71.2
78455;SHT31;67751;51.986;5.696;2023-04-07T10:33:52;11.7;71.8
78455;SHT31;67751;51.986;5.696;2023-04-07T10:36:23;11.7;71.5
78455;SHT31;67751;51.986;5.696;2023-04-07T10:39:20;11.7;71.4
78455;SHT31;67751;51.986;5.696;2023-04-07T10:41:50;11.8;72.1
78455;SHT31;67751;51.986;5.696;2023-04-07T10:44:48;11.8;69.7
78455;SHT31;67751;51.986;5.696;2023-04-07T10:47:19;11.8;70.5
78455;SHT31;67751;51.986;5.696;2023-04-07T10:50:33;11.8;70.3
78455;SHT31;67751;51.986;5.696;2023-04-07T10:53:07;11.7;69.9
78455;SHT31;67751;51.986;5.696;2023-04-07T10:55:40;11.7;69.9
78455;SHT31;67751;51.986;5.696;2023-04-07T10:58:17;11.7;69.9
78455;SHT31;67751;51.986;5.696;2023-04-07T11:03:07;11.7;69.8
78455;SHT31;67751;51.986;5.696;2023-04-07T11:05:39;11.7;71.4
78455;SHT31;67751;51.986;5.696;2023-04-07T11:08:09;11.7;70.6
78455;SHT31;67751;51.986;5.696;2023-04-07T11:10:39;11.7;72.0
78455;SHT31;67751;51.986;5.696;2023-04-07T11:13:09;11.7;73.0
78455;SHT31;67751;51.986;5.696;2023-04-07T11:15:39;11.7;73.2
78455;SHT31;67751;51.986;5.696;2023-04-07T11:18:13;11.7;69.7
78455;SHT31;67751;51.986;5.696;2023-04-07T11:20:49;11.7;71.2
78455;SHT31;67751;51.986;5.696;2023-04-07T11:23:20;11.7;70.2
78455;SHT31;67751;51.986;5.696;2023-04-07T11:25:52;11.7;69.9
78455;SHT31;67751;51.986;5.696;2023-04-07T11:28:27;11.7;69.2
78455;SHT31;67751;51.986;5.696;2023-04-07T11:30:57;11.7;71.5
78455;SHT31;67751;51.986;5.696;2023-04-07T11:33:30;11.7;72.0
78455;SHT31;67751;51.986;5.696;2023-04-07T11:36:02;11.7;72.0
78455;SHT31;67751;51.986;5.696;2023-04-07T11:38:35;11.7;70.9
78455;SHT31;67751;51.986;5.696;2023-04-07T11:41:12;11.8;72.0
78455;SHT31;67751;51.986;5.696;2023-04-07T11:43:42;11.8;69.7
78455;SHT31;67751;51.986;5.696;2023-04-07T11:46:13;11.8;67.6
78455;SHT31;67751;51.986;5.696;2023-04-07T11:48:44;11.8;70.0
78455;SHT31;67751;51.986;5.696;2023-04-07T11:51:20;11.8;70.8
78455;SHT31;67751;51.986;5.696;2023-04-07T11:53:55;11.8;71.1
78455;SHT31;67751;51.986;5.696;2023-04-07T11:56:26;11.8;68.8
78455;SHT31;67751;51.986;5.696;2023-04-07T11:58:56;11.8;68.9
78455;SHT31;67751;51.986;5.696;2023-04-07T12:01:39;11.8;70.6
78455;SHT31;67751;51.986;5.696;2023-04-07T12:04:12;11.8;69.1
78455;SHT31;67751;51.986;5.696;2023-04-07T12:06:43;11.8;68.1
78455;SHT31;67751;51.986;5.696;2023-04-07T12:09:34;11.8;69.7
78455;SHT31;67751;51.986;5.696;2023-04-07T12:12:05;11.8;70.5
78455;SHT31;67751;51.986;5.696;2023-04-07T12:14:37;11.9;70.5
78455;SHT31;67751;51.986;5.696;2023-04-07T12:17:20;11.9;68.9
78455;SHT31;67751;51.986;5.696;2023-04-07T12:19:50;11.9;67.0
78455;SHT31;67751;51.986;5.696;2023-04-07T12:22:22;11.9;69.3
78455;SHT31;67751;51.986;5.696;2023-04-07T12:24:52;11.9;70.1
78455;SHT31;67751;51.986;5.696;2023-04-07T12:27:22;11.9;70.3
78455;SHT31;67751;51.986;5.696;2023-04-07T12:29:51;11.9;69.6
78455;SHT31;67751;51.986;5.696;2023-04-07T12:32:21;11.9;69.9
78455;SHT31;67751;51.986;5.696;2023-04-07T12:34:50;11.9;68.7
78455;SHT31;67751;51.986;5.696;2023-04-07T12:37:20;11.9;68.3
78455;SHT31;67751;51.986;5.696;2023-04-07T12:39:50;11.9;68.1
78455;SHT31;67751;51.986;5.696;2023-04-07T12:42:19;11.9;68.3
78455;SHT31;67751;51.986;5.696;2023-04-07T12:44:49;11.9;67.1
78455;SHT31;67751;51.986;5.696;2023-04-07T12:47:19;11.9;69.1
78455;SHT31;67751;51.986;5.696;2023-04-07T12:49:49;11.9;67.7
78455;SHT31;67751;51.986;5.696;2023-04-07T12:52:18;11.9;69.2
78455;SHT31;67751;51.986;5.696;2023-04-07T12:54:48;11.9;69.2
78455;SHT31;67751;51.986;5.696;2023-04-07T12:57:19;11.9;67.3
78455;SHT31;67751;51.986;5.696;2023-04-07T12:59:49;11.9;69.2
78455;SHT31;67751;51.986;5.696;2023-04-07T13:02:19;11.9;67.6
78455;SHT31;67751;51.986;5.696;2023-04-07T13:04:51;11.9;68.6
78455;SHT31;67751;51.986;5.696;2023-04-07T13:07:21;11.9;69.9
78455;SHT31;67751;51.986;5.696;2023-04-07T13:09:50;11.9;67.5
78455;SHT31;67751;51.986;5.696;2023-04-07T13:12:21;11.9;69.2
78455;SHT31;67751;51.986;5.696;2023-04-07T13:14:50;11.9;68.9
78455;SHT31;67751;51.986;5.696;2023-04-07T13:17:20;11.9;70.4
78455;SHT31;67751;51.986;5.696;2023-04-07T13:19:49;12.0;69.2
78455;SHT31;67751;51.986;5.696;2023-04-07T13:22:19;12.0;68.5
78455;SHT31;67751;51.986;5.696;2023-04-07T13:24:49;12.0;67.2
78455;SHT31;67751;51.986;5.696;2023-04-07T13:27:19;12.0;66.0
78455;SHT31;67751;51.986;5.696;2023-04-07T13:29:48;12.0;66.6
78455;SHT31;67751;51.986;5.696;2023-04-07T13:32:20;12.0;68.2
78455;SHT31;67751;51.986;5.696;2023-04-07T13:34:49;12.0;69.5
78455;SHT31;67751;51.986;5.696;2023-04-07T13:37:19;12.1;67.9
78455;SHT31;67751;51.986;5.696;2023-04-07T13:39:49;12.1;67.5
78455;SHT31;67751;51.986;5.696;2023-04-07T13:42:18;12.1;67.8
78455;SHT31;67751;51.986;5.696;2023-04-07T13:44:48;12.1;66.5
78455;SHT31;67751;51.986;5.696;2023-04-07T13:47:20;12.1;68.7
78455;SHT31;67751;51.986;5.696;2023-04-07T13:49:51;12.1;68.3
78455;SHT31;67751;51.986;5.696;2023-04-07T13:52:21;12.1;67.5
78455;SHT31;67751;51.986;5.696;2023-04-07T13:54:50;12.1;67.2
78455;SHT31;67751;51.986;5.696;2023-04-07T13:57:20;12.2;67.6
78455;SHT31;67751;51.986;5.696;2023-04-07T13:59:50;12.2;66.7
78455;SHT31;67751;51.986;5.696;2023-04-07T14:02:20;12.2;66.3
78455;SHT31;67751;51.986;5.696;2023-04-07T14:04:50;12.2;68.8
78455;SHT31;67751;51.986;5.696;2023-04-07T14:07:20;12.2;67.6
78455;SHT31;67751;51.986;5.696;2023-04-07T14:09:50;12.2;68.2
78455;SHT31;67751;51.986;5.696;2023-04-07T14:12:20;12.3;65.7
78455;SHT31;67751;51.986;5.696;2023-04-07T14:14:50;12.3;67.0
78455;SHT31;67751;51.986;5.696;2023-04-07T14:17:21;12.3;66.9
78455;SHT31;67751;51.986;5.696;2023-04-07T14:19:51;12.3;67.3
78455;SHT31;67751;51.986;5.696;2023-04-07T14:22:20;12.3;67.7
78455;SHT31;67751;51.986;5.696;2023-04-07T14:24:50;12.3;68.0
78455;SHT31;67751;51.986;5.696;2023-04-07T14:27:19;12.4;65.1
78455;SHT31;67751;51.986;5.696;2023-04-07T14:29:49;12.4;66.3
78455;SHT31;67751;51.986;5.696;2023-04-07T14:32:22;12.4;65.3
78455;SHT31;67751;51.986;5.696;2023-04-07T14:34:52;12.4;65.4
78455;SHT31;67751;51.986;5.696;2023-04-07T14:37:21;12.3;68.5
78455;SHT31;67751;51.986;5.696;2023-04-07T14:39:53;12.3;67.8
78455;SHT31;67751;51.986;5.696;2023-04-07T14:42:23;12.3;65.6
78455;SHT31;67751;51.986;5.696;2023-04-07T14:44:53;12.4;65.2
78455;SHT31;67751;51.986;5.696;2023-04-07T14:47:23;12.4;65.6
78455;SHT31;67751;51.986;5.696;2023-04-07T14:49:52;12.3;65.1
78455;SHT31;67751;51.986;5.696;2023-04-07T14:52:22;12.3;66.3
78455;SHT31;67751;51.986;5.696;2023-04-07T14:54:52;12.3;66.3
78455;SHT31;67751;51.986;5.696;2023-04-07T14:57:22;12.3;67.6
78455;SHT31;67751;51.986;5.696;2023-04-07T14:59:51;12.3;66.5
78455;SHT31;67751;51.986;5.696;2023-04-07T15:02:21;12.3;67.1
78455;SHT31;67751;51.986;5.696;2023-04-07T15:04:50;12.3;66.8
78455;SHT31;67751;51.986;5.696;2023-04-07T15:07:20;12.3;66.4
78455;SHT31;67751;51.986;5.696;2023-04-07T15:09:52;12.4;67.7
78455;SHT31;67751;51.986;5.696;2023-04-07T15:12:21;12.4;67.8
78455;SHT31;67751;51.986;5.696;2023-04-07T15:14:52;12.4;67.1
78455;SHT31;67751;51.986;5.696;2023-04-07T15:17:22;12.4;66.9
78455;SHT31;67751;51.986;5.696;2023-04-07T15:19:52;12.4;66.7
78455;SHT31;67751;51.986;5.696;2023-04-07T15:22:22;12.4;66.5
78455;SHT31;67751;51.986;5.696;2023-04-07T15:24:51;12.4;67.6
78455;SHT31;67751;51.986;5.696;2023-04-07T15:27:21;12.4;67.6
78455;SHT31;67751;51.986;5.696;2023-04-07T15:29:50;12.4;65.8
78455;SHT31;67751;51.986;5.696;2023-04-07T15:32:20;12.4;67.1
78455;SHT31;67751;51.986;5.696;2023-04-07T15:34:50;12.4;67.3
78455;SHT31;67751;51.986;5.696;2023-04-07T15:37:19;12.4;65.6
78455;SHT31;67751;51.986;5.696;2023-04-07T15:39:49;12.4;67.2
78455;SHT31;67751;51.986;5.696;2023-04-07T15:42:19;12.4;66.5
78455;SHT31;67751;51.986;5.696;2023-04-07T15:44:49;12.4;66.8
78455;SHT31;67751;51.986;5.696;2023-04-07T15:47:18;12.4;67.8
78455;SHT31;67751;51.986;5.696;2023-04-07T15:49:50;12.4;68.0
78455;SHT31;67751;51.986;5.696;2023-04-07T15:52:20;12.4;67.8
78455;SHT31;67751;51.986;5.696;2023-04-07T15:54:49;12.4;67.4
78455;SHT31;67751;51.986;5.696;2023-04-07T15:57:19;12.4;68.0
78455;SHT31;67751;51.986;5.696;2023-04-07T15:59:49;12.4;69.0
78455;SHT31;67751;51.986;5.696;2023-04-07T16:02:19;12.4;69.1
78455;SHT31;67751;51.986;5.696;2023-04-07T16:04:48;12.4;67.0
78455;SHT31;67751;51.986;5.696;2023-04-07T16:07:18;12.4;68.2
78455;SHT31;67751;51.986;5.696;2023-04-07T16:09:48;12.5;67.6
78455;SHT31;67751;51.986;5.696;2023-04-07T16:12:18;12.5;68.1
78455;SHT31;67751;51.986;5.696;2023-04-07T16:14:48;12.5;66.8
78455;SHT31;67751;51.986;5.696;2023-04-07T16:17:18;12.5;67.7
78455;SHT31;67751;51.986;5.696;2023-04-07T16:19:48;12.4;66.7
78455;SHT31;67751;51.986;5.696;2023-04-07T16:22:17;12.4;66.9
78455;SHT31;67751;51.986;5.696;2023-04-07T16:24:47;12.4;68.6
78455;SHT31;67751;51.986;5.696;2023-04-07T16:27:16;12.4;67.3
78455;SHT31;67751;51.986;5.696;2023-04-07T16:29:46;12.4;67.2